Ironwood, MI

5:18 PM CDT on September 28, 2016 (GMT -0500)
North of US 2 | | Change Station

Elev 1490 ft 46.47 °N, 90.15 °W | Updated 21 seconds ago

Overcast
Overcast
54.9 °F
Feels Like 54.9 °F
N
4.5
Wind Variable Wind from North
Gusts 7.4 mph

Today
High -- | Low -- °F
--% Chance of Precip.
Yesterday
High -- | Low -- °F
Precip. -- in
Pressure 30.28 in
Visibility 10.0 miles
Clouds Scattered Clouds 1100 ft
Overcast 2300 ft
Dew Point 55 °F
Humidity 99%
Rainfall 0.37 in
Snow Depth Not available.
6:55 AM 6:45 PM
Waning Crescent, 4% visible
METAR KIWD 282156Z AUTO 02005KT 10SM SCT011 OVC023 13/12 A3027 RMK AO2 SLP254 T01330117 TSNO
Pressure 30.28 in
Visibility 10.0 miles
Clouds Scattered Clouds 1100 ft
Overcast 2300 ft
Dew Point 55 °F
Humidity 99%
Rainfall 0.37 in
Snow Depth Not available.
6:55 AM 6:45 PM
Waning Crescent, 4% visible
METAR KIWD 282156Z AUTO 02005KT 10SM SCT011 OVC023 13/12 A3027 RMK AO2 SLP254 T01330117 TSNO

10-Day Weather Forecast

Almanac

Astronomy

Sep. 28, 2016 Rise Set
Actual Time
Civil Twilight
Nautical Twilight
Astronomical Twilight
Moon
Length of Visible Light
Length of Day
Tomorrow will be .
, % of the Moon is Illuminated

Today's Extremes

State Highs State Lows

Community

WunderPhotos

Upload Photos

1,942,335 photos uploaded!

WunderBlog® & News

Nearby

Air Quality

  Air Quality AQ Index Pollutant
Not available.

Snow Depth

Station Depth Elevation

Earthquake Activity

City Distance Mag. Time & Date
Minimum magnitude displayed is 2.5.

Coastal Water Temperatures

Place Temperature

Stations

Nearby Weather Stations

Station Location Temp. Windchill Dew Point Humidity Wind Precip. Elev Updated Type
                   

Watches & Warnings

There are currently no watches in effect.